NEODyS-2

Near Earth Objects - Dynamic Site
NEODyS ∴ Observatories ∴ Site 691 ∴ Obs & residuals
Contact »
691  ▹ 
OBSERVATIONS AND RESIDUALS

691-Steward Observatory, Kitt Peak-Spacewatch

Detections | Residuals | Detections & Residuals

[1-200] [201-400] [401-600] [601-800] [801-1000] [1001-1200] [1201-1400] [1401-1600] [1601-1800] [1801-2000] [2001-2200] [2201-2400] [2401-2600] [2601-2800] [2801-3000] [3001-3200] [3201-3400] [3401-3600] [3601-3800] [3801-4000] [4001-4200] [4201-4400] [4401-4600] [4601-4800] [4801-5000] [5001-5200] [5201-5400] [5401-5600] [5601-5800] [5801-6000] [6001-6200] [6201-6400] [6401-6600] [6601-6800] [6801-7000] [7001-7200] [7201-7400] [7401-7600] [7601-7800] [7801-8000] [8001-8200] [8201-8400] [8401-8600] [8601-8800] [8801-9000] [9001-9200] [9201-9400] [9401-9600] [9601-9800] [9801-10000] [10001-10200] [10201-10400] [10401-10600] [10601-10800] [10801-11000] [11001-11200] [11201-11400] [11401-11600] [11601-11800] [11801-12000] [12001-12200] [12201-12400] [12401-12600] [12601-12800] [12801-13000] [13001-13200] [13201-13400] [13401-13600] [13601-13800] [13801-14000] [14001-14200] [14201-14400] [14401-14600] [14601-14800] [14801-15000] [15001-15200] [15201-15400] [15401-15600] [15601-15800] [15801-16000] [16001-16200] [16201-16400] [16401-16600] [16601-16800] [16801-17000] [17001-17200] [17201-17400] [17401-17600] [17601-17800] [17801-18000] [18001-18200] [18201-18400] [18401-18600] [18601-18800] [18801-19000] [19001-19200] [19201-19400] [19401-19600] [19601-19800] [19801-20000] [20001-20200] [20201-20400] [20401-20600] [20601-20800] [20801-21000] [21001-21200] [21201-21400] [21401-21600] [21601-21800] [21801-22000] [22001-22200] [22201-22400] [22401-22600] [22601-22800] [22801-23000] [23001-23200] [23201-23400] [23401-23600] [23601-23800] [23801-24000] [24001-24200] [24201-24400] [24401-24600] [24601-24800] [24801-25000] [25001-25200] [25201-25400] [25401-25600] [25601-25800] [25801-26000] [26001-26200] [26201-26400] [26401-26600] [26601-26800] [26801-27000] [27001-27200] [27201-27400] [27401-27600] [27601-27800] [27801-28000] [28001-28200] [28201-28400] [28401-28600] [28601-28800] [28801-29000] [29001-29200] [29201-29400] [29401-29600] [29601-29800] [29801-30000] [30001-30200] [30201-30400] [30401-30600] [30601-30800] [30801-31000] [31001-31200] [31201-31400] [31401-31600] [31601-31800] [31801-32000] [32001-32200] [32201-32400] [32401-32600] [32601-32800] [32801-33000] [33001-33200] [33201-33400] [33401-33600] [33601-33800] [33801-34000] [34001-34200] [34201-34400] [34401-34600] [34601-34800] [34801-35000] [35001-35200] [35201-35400] [35401-35600] [35601-35800] [35801-36000] [36001-36200] [36201-36400] [36401-36600] [36601-36800] [36801-37000] [37001-37200] [37201-37400] [37401-37600] [37601-37800] [37801-38000] [38001-38200] [38201-38400] [38401-38600] [38601-38800] [38801-39000] [39001-39200] [39201-39400] [39401-39600] [39601-39800] [39801-40000] [40001-40200] [40201-40400] [40401-40600] [40601-40800] [40801-41000] [41001-41200] [41201-41400] [41401-41600] [41601-41800] [41801-42000] [42001-42200] [42201-42400] [42401-42600] [42601-42800] [42801-43000] [43001-43200] [43201-43400] [43401-43600] [43601-43800] [43801-44000] [44001-44200] [44201-44400] [44401-44600] [44601-44800] [44801-45000] [45001-45200] [45201-45400] [45401-45600] [45601-45800] [45801-46000] [46001-46200] [46201-46400] [46401-46600] [46601-46800] [46801-47000] [47001-47200] [47201-47400] [47401-47600] [47601-47800] [47801-48000] [48001-48200] [48201-48400] [48401-48600] [48601-48800] [48801-49000] [49001-49200] [49201-49400] [49401-49600] [49601-49800] [49801-50000] [50001-50200] [50201-50388]

Designation T Tech N Date Right Ascension Declination Apparent Magnitude Star Catalog Site code χ Used A Used M
yr-mo-day precision hr:min:sec precision rms F bias residual deg min sec precision rms F bias residual mag/col rms residual
2020BG5 O C K 2020-01-23.34227 1.000E-05 08:09:34.710 1.500E-01 0.500 F -0.068 0.793 +30° 01' 05.20" 1.000E-01 0.500 F 0.264 -0.047 o 691 1.61 Yes No
2020BG5 O C K 2020-01-23.36088 1.000E-05 08:09:31.550 1.500E-01 0.500 F -0.068 -0.157 +30° 01' 30.40" 1.000E-01 0.500 F 0.264 0.839 o 691 1.74 Yes No
2020BG5 O C K 2020-01-23.37947 1.000E-05 08:09:28.470 1.500E-01 0.500 F -0.050 -0.217 +30° 01' 53.60" 1.000E-01 0.500 F 0.250 -0.080 o 691 0.47 Yes No
Boreas O C 2020-01-23.43447 1.000E-05 08:21:47.690 1.500E-01 0.500 F -0.014 -0.649 +31° 44' 29.90" 1.000E-01 0.500 F 0.366 -0.111 19.6 V 0.70 0.11 o 691 1.32 Yes Yes
Boreas O C 2020-01-23.44683 1.000E-05 08:21:46.790 1.500E-01 0.500 F -0.014 -0.067 +31° 44' 30.60" 1.000E-01 0.500 F 0.366 -0.480 19.5 V 0.70 0.01 o 691 0.97 Yes Yes
Boreas O C 2020-01-23.45712 1.000E-05 08:21:46.010 1.500E-01 0.500 F -0.014 0.015 +31° 44' 31.80" 1.000E-01 0.500 F 0.366 -0.163 19.6 V 0.70 0.11 o 691 0.33 Yes Yes
2011EP51 O C K 2020-01-24.22696 1.000E-05 07:00:26.030 1.500E-01 0.500 F -0.145 -0.017 -14° 07' 06.70" 1.000E-01 0.500 F 0.021 0.409 20.7 R 0.70 0.22 o 691 0.88 Yes Yes
2011EP51 O C K 2020-01-24.23286 1.000E-05 07:00:23.180 1.500E-01 0.500 F -0.145 0.174 -14° 06' 10.30" 1.000E-01 0.500 F 0.021 0.520 20.9 R 0.70 0.42 o 691 1.17 Yes Yes
2020BY1 O C K 2020-01-24.24000 1.000E-05 07:50:20.340 1.500E-01 0.500 F 0.049 0.129 +14° 25' 37.30" 1.000E-01 0.500 F 0.294 -0.334 21.5 R 0.70 0.51 o 691 0.72 Yes Yes
2020BY1 O C K 2020-01-24.24463 1.000E-05 07:50:21.330 1.500E-01 0.500 F 0.049 -0.057 +14° 25' 28.50" 1.000E-01 0.500 F 0.294 -0.376 21.3 R 0.70 0.31 o 691 0.76 Yes Yes
2020BY1 O C K 2020-01-24.24926 1.000E-05 07:50:22.320 1.500E-01 0.500 F 0.049 -0.197 +14° 25' 20.50" 1.000E-01 0.500 F 0.294 0.391 21.1 R 0.70 0.11 o 691 0.88 Yes Yes
2020BR2 O C K 2020-01-24.29202 1.000E-05 09:39:25.790 1.500E-01 0.500 F 0.187 0.275 +09° 21' 19.70" 1.000E-01 0.500 F 0.193 -0.156 21.0 R 0.70 -0.33 o 691 0.64 Yes Yes
2020BR2 O C K 2020-01-24.30091 1.000E-05 09:39:23.840 1.500E-01 0.500 F 0.187 0.291 +09° 22' 03.80" 1.000E-01 0.500 F 0.193 -0.154 22.1 R 0.70 0.77 o 691 0.67 Yes Yes
2020BR2 O C K 2020-01-24.30980 1.000E-05 09:39:21.820 1.500E-01 0.500 F 0.187 -0.601 +09° 22' 48.80" 1.000E-01 0.500 F 0.193 0.800 21.7 R 0.70 0.37 o 691 2.03 Yes Yes
2020BU3 O C K 2020-01-24.32149 1.000E-05 08:15:49.370 1.500E-01 0.500 F -0.039 0.069 +28° 36' 50.00" 1.000E-01 0.500 F 0.237 0.019 21.0 R 0.70 -0.02 o 691 0.15 Yes Yes
2020BU3 O C K 2020-01-24.32885 1.000E-05 08:15:46.910 1.500E-01 0.500 F -0.039 -0.005 +28° 36' 46.20" 1.000E-01 0.500 F 0.237 -0.083 21.5 R 0.70 0.48 o 691 0.17 Yes Yes
2020BU3 O C K 2020-01-24.33620 1.000E-05 08:15:44.430 1.500E-01 0.500 F -0.039 -0.423 +28° 36' 41.60" 1.000E-01 0.500 F 0.237 -0.959 o 691 2.11 Yes No
2020BH O C K 2020-01-24.34673 1.000E-05 10:54:26.710 1.500E-01 0.500 F 0.064 -0.126 +16° 02' 46.90" 1.000E-01 0.500 F 0.166 -0.101 21.4 R 0.70 0.43 o 691 0.32 Yes Yes
2020BH O C K 2020-01-24.35141 1.000E-05 10:54:27.730 1.500E-01 0.500 F 0.064 -0.180 +16° 02' 34.50" 1.000E-01 0.500 F 0.166 -0.002 20.9 R 0.70 -0.07 o 691 0.36 Yes Yes
2020BH O C K 2020-01-24.35608 1.000E-05 10:54:28.700 1.500E-01 0.500 F 0.064 -0.777 +16° 02' 22.40" 1.000E-01 0.500 F 0.166 0.436 20.7 R 0.70 -0.27 o 691 1.79 Yes Yes
2020BH14 O C K 2020-01-24.48463 1.000E-05 11:15:24.140 1.500E-01 0.500 F 0.091 -0.470 +16° 43' 40.10" 1.000E-01 0.500 F 0.179 -0.046 22.3 R 0.70 0.14 o 691 1.02 Yes Yes
2020BH14 O C K 2020-01-24.51061 1.000E-05 11:15:21.950 1.500E-01 0.500 F 0.091 -0.092 +16° 43' 43.50" 1.000E-01 0.500 F 0.179 -0.006 22.4 R 0.70 0.24 o 691 0.20 Yes Yes
2020BH14 O C K 2020-01-24.53186 1.000E-05 11:15:20.190 1.500E-01 0.500 F 0.091 0.639 +16° 43' 45.60" 1.000E-01 0.500 F 0.179 -0.631 22.2 R 0.70 0.04 o 691 1.91 Yes Yes
2019YM6 O C K 2020-01-25.24935 1.000E-05 04:08:33.110 1.500E-01 0.500 F -0.168 0.742 +03° 57' 36.20" 1.000E-01 0.500 F 0.177 0.169 19.6 R 0.70 -0.45 o 691 1.57 Yes Yes
2019YM6 O C K 2020-01-25.25615 1.000E-05 04:08:31.050 1.500E-01 0.500 F -0.168 -0.357 +03° 58' 19.80" 1.000E-01 0.500 F 0.177 -0.020 19.8 R 0.70 -0.25 o 691 0.74 Yes Yes
2019YM6 O C K 2020-01-25.26295 1.000E-05 04:08:29.080 1.500E-01 0.500 F -0.168 -0.165 +03° 59' 03.60" 1.000E-01 0.500 F 0.177 -0.008 19.8 R 0.70 -0.25 o 691 0.34 Yes Yes
2020BH O C K 2020-01-25.27887 1.000E-05 10:59:36.760 1.500E-01 0.500 F 0.078 -0.458 +15° 20' 02.20" 1.000E-01 0.500 F 0.218 -0.158 21.1 R 0.70 -0.05 o 691 0.97 Yes Yes
2020BH O C K 2020-01-25.28547 1.000E-05 10:59:38.100 1.500E-01 0.500 F 0.078 -0.832 +15° 19' 48.90" 1.000E-01 0.500 F 0.218 0.426 20.3 R 0.70 -0.85 o 691 1.88 Yes Yes
2020BH O C K 2020-01-25.29206 1.000E-05 10:59:39.500 1.500E-01 0.500 F 0.078 0.144 +15° 19' 35.00" 1.000E-01 0.500 F 0.218 0.470 20.6 R 0.70 -0.55 o 691 0.98 Yes Yes
2020BW5 O C K 2020-01-25.30178 1.000E-05 08:58:52.560 1.500E-01 0.500 F -0.064 -0.136 +13° 54' 34.40" 1.000E-01 0.500 F 0.223 -0.016 21.9 R 0.70 0.51 o 691 0.28 Yes Yes
2002NX18 O C 2020-01-25.30178 1.000E-05 08:58:43.560 1.500E-01 0.500 F -0.030 -0.166 +13° 27' 43.90" 1.000E-01 0.500 F 0.237 -0.129 19.2 V 0.70 0.20 o 691 0.42 Yes Yes
2020BW5 O C K 2020-01-25.30812 1.000E-05 08:58:53.000 1.500E-01 0.500 F -0.064 0.061 +13° 54' 24.70" 1.000E-01 0.500 F 0.223 -0.134 21.6 R 0.70 0.21 o 691 0.29 Yes Yes
2002NX18 O C 2020-01-25.31129 1.000E-05 08:58:42.690 1.500E-01 0.500 F -0.030 -0.180 +13° 27' 49.00" 1.000E-01 0.500 F 0.237 0.019 19.2 V 0.70 0.20 o 691 0.36 Yes Yes
2020BW5 O C K 2020-01-25.31446 1.000E-05 08:58:53.420 1.500E-01 0.500 F -0.064 -0.009 +13° 54' 15.60" 1.000E-01 0.500 F 0.223 0.390 21.5 R 0.70 0.11 o 691 0.78 Yes Yes
2002NX18 O C 2020-01-25.31922 1.000E-05 08:58:41.950 1.500E-01 0.500 F -0.030 -0.400 +13° 27' 53.60" 1.000E-01 0.500 F 0.237 0.494 19.1 V 0.70 0.10 o 691 1.27 Yes Yes
2020BA5 O C K 2020-01-25.35121 1.000E-05 09:28:05.390 1.500E-01 0.500 F 0.198 0.023 +07° 45' 44.50" 1.000E-01 0.500 F 0.212 -0.241 21.5 R 0.70 -0.04 o 691 0.49 Yes Yes
2020BA5 O C K 2020-01-25.36076 1.000E-05 09:28:03.640 1.500E-01 0.500 F 0.198 0.034 +07° 45' 33.00" 1.000E-01 0.500 F 0.212 -0.165 21.8 R 0.70 0.26 o 691 0.34 Yes Yes
2020BA5 O C K 2020-01-25.37032 1.000E-05 09:28:01.880 1.500E-01 0.500 F 0.198 -0.073 +07° 45' 21.60" 1.000E-01 0.500 F 0.212 0.040 21.3 R 0.70 -0.24 o 691 0.17 Yes Yes
2020BS O C K 2020-01-25.40382 1.000E-05 09:53:25.420 1.500E-01 0.500 F 0.116 0.296 +11° 46' 13.70" 1.000E-01 0.500 F 0.205 0.002 20.7 R 0.70 -0.04 o 691 0.61 Yes Yes
2020BS O C K 2020-01-25.40845 1.000E-05 09:53:25.750 1.500E-01 0.500 F 0.116 -0.617 +11° 45' 53.60" 1.000E-01 0.500 F 0.205 -0.130 20.4 R 0.70 -0.34 o 691 1.30 Yes Yes
2020BS O C K 2020-01-25.41307 1.000E-05 09:53:26.160 1.500E-01 0.500 F 0.116 -0.383 +11° 45' 34.10" 1.000E-01 0.500 F 0.205 0.325 21.2 R 0.70 0.46 o 691 1.04 Yes Yes
2020BK7 O C K 2020-01-25.43073 1.000E-05 12:01:33.660 1.500E-01 0.500 F 0.136 -0.346 -01° 52' 29.40" 1.000E-01 0.500 F 0.184 0.228 20.9 R 0.70 0.11 o 691 0.87 Yes Yes
2020BK7 O C K 2020-01-25.43686 1.000E-05 12:01:34.860 1.500E-01 0.500 F 0.136 -0.729 -01° 52' 58.50" 1.000E-01 0.500 F 0.184 0.210 20.9 R 0.70 0.11 o 691 1.58 Yes Yes
2020BK7 O C K 2020-01-25.44666 1.000E-05 12:01:36.860 1.500E-01 0.500 F 0.136 -0.002 -01° 53' 44.70" 1.000E-01 0.500 F 0.184 0.459 20.7 R 0.70 -0.09 o 691 0.94 Yes Yes
2020BM7 O C K 2020-01-25.45616 1.000E-05 10:08:19.860 1.500E-01 0.500 F 0.129 -0.008 +12° 57' 13.90" 1.000E-01 0.500 F 0.277 -0.283 20.8 R 0.70 0.27 o 691 0.59 Yes Yes
2020BM7 O C K 2020-01-25.46786 1.000E-05 10:08:14.470 1.500E-01 0.500 F 0.129 -0.087 +12° 55' 13.30" 1.000E-01 0.500 F 0.277 -0.475 20.3 R 0.70 -0.23 o 691 1.00 Yes Yes
2016FG15 O C K 2020-01-25.49300 1.000E-05 12:20:01.850 1.500E-01 0.500 F 0.156 0.382 +31° 26' 06.70" 1.000E-01 0.500 F 0.183 0.410 21.9 R 0.70 0.15 o 691 1.14 Yes Yes
2016FG15 O C K 2020-01-25.50426 1.000E-05 12:20:02.820 1.500E-01 0.500 F 0.156 -0.165 +31° 26' 18.90" 1.000E-01 0.500 F 0.183 0.097 21.7 R 0.70 -0.05 o 691 0.38 Yes Yes
2016FG15 O C K 2020-01-25.51552 1.000E-05 12:20:03.850 1.500E-01 0.500 F 0.156 0.048 +31° 26' 31.40" 1.000E-01 0.500 F 0.183 0.102 22.1 R 0.70 0.35 o 691 0.23 Yes Yes
2019YF4 O C K 2020-01-25.52830 1.000E-05 12:47:40.100 1.500E-01 0.500 F 0.348 -0.091 -11° 11' 34.00" 1.000E-01 0.500 F 0.115 0.119 21.9 R 0.70 0.78 o 691 0.30 Yes Yes
2019YF4 O C K 2020-01-25.54016 1.000E-05 12:47:42.060 1.500E-01 0.500 F 0.348 0.065 -11° 11' 45.00" 1.000E-01 0.500 F 0.115 0.012 21.8 R 0.70 0.68 o 691 0.13 Yes Yes
2019YF4 O C K 2020-01-25.55201 1.000E-05 12:47:44.110 1.500E-01 0.500 F 0.348 1.206 -11° 11' 55.80" 1.000E-01 0.500 F 0.115 -0.224 o 691 2.50 Yes No
2012DK31 O C K 2020-01-26.08438 1.000E-05 03:25:23.430 1.500E-01 0.500 F -0.093 0.387 -26° 36' 29.60" 1.000E-01 0.500 F 0.130 0.297 21.6 R 0.70 0.83 o 691 1.02 Yes Yes
2012DK31 O C K 2020-01-26.09299 1.000E-05 03:25:25.440 1.500E-01 0.500 F -0.093 -0.126 -26° 35' 30.30" 1.000E-01 0.500 F 0.130 -0.247 22.1 R 0.70 1.33 o 691 0.58 Yes Yes
2012DK31 O C K 2020-01-26.10160 1.000E-05 03:25:27.490 1.500E-01 0.500 F -0.056 -0.114 -26° 34' 29.90" 1.000E-01 0.500 F 0.207 0.208 21.2 R 0.70 0.42 o 691 0.50 Yes Yes
2020BO3 O C K 2020-01-26.11145 1.000E-05 04:32:39.990 1.500E-01 0.500 F -0.204 0.024 -00° 11' 39.60" 1.000E-01 0.500 F 0.208 0.121 21.7 R 0.70 0.37 o 691 0.25 Yes Yes
2020BO3 O C K 2020-01-26.12190 1.000E-05 04:32:42.340 1.500E-01 0.500 F -0.204 0.007 -00° 11' 59.20" 1.000E-01 0.500 F 0.208 0.213 21.2 R 0.70 -0.13 o 691 0.43 Yes Yes
2020BO3 O C K 2020-01-26.13237 1.000E-05 04:32:44.670 1.500E-01 0.500 F -0.204 -0.344 -00° 12' 19.20" 1.000E-01 0.500 F 0.208 -0.064 21.1 R 0.70 -0.23 o 691 0.70 Yes Yes
2020BY1 O C K 2020-01-26.15213 1.000E-05 07:56:56.810 1.500E-01 0.500 F -0.090 -0.715 +13° 36' 27.60" 1.000E-01 0.500 F 0.226 -0.297 o 691 1.55 Yes No
2020BY1 O C K 2020-01-26.16305 1.000E-05 07:56:58.370 1.500E-01 0.500 F -0.090 -0.328 +13° 36' 15.60" 1.000E-01 0.500 F 0.226 -0.075 22.1 R 0.70 0.55 o 691 0.68 Yes Yes
2002NX18 O C 2020-01-26.21790 1.000E-05 08:57:23.400 1.500E-01 0.500 F -0.030 -0.116 +13° 35' 37.30" 1.000E-01 0.500 F 0.237 -0.079 19.1 V 0.70 0.11 o 691 0.27 Yes Yes
2020BW5 O C K 2020-01-26.21790 1.000E-05 09:00:36.880 1.500E-01 0.500 F -0.064 0.246 +13° 29' 34.20" 1.000E-01 0.500 F 0.223 0.048 21.5 R 0.70 0.27 o 691 0.50 Yes Yes
2020BW5 O C K 2020-01-26.22235 1.000E-05 09:00:37.260 1.500E-01 0.500 F -0.064 0.140 +13° 29' 26.90" 1.000E-01 0.500 F 0.223 0.032 21.1 R 0.70 -0.13 o 691 0.29 Yes Yes
2002NX18 O C 2020-01-26.22383 1.000E-05 08:57:22.870 1.500E-01 0.500 F -0.030 -0.055 +13° 35' 40.40" 1.000E-01 0.500 F 0.237 -0.083 19.3 V 0.70 0.31 o 691 0.20 Yes Yes
2020BW5 O C K 2020-01-26.22680 1.000E-05 09:00:37.620 1.500E-01 0.500 F -0.064 -0.211 +13° 29' 19.70" 1.000E-01 0.500 F 0.223 0.132 21.2 R 0.70 -0.03 o 691 0.50 Yes Yes
2002NX18 O C 2020-01-26.22976 1.000E-05 08:57:22.330 1.500E-01 0.500 F -0.030 -0.133 +13° 35' 43.60" 1.000E-01 0.500 F 0.237 0.014 19.2 V 0.70 0.21 o 691 0.26 Yes Yes
2020BH O C K 2020-01-26.28482 1.000E-05 11:04:07.200 1.500E-01 0.500 F 0.182 0.169 +14° 41' 00.00" 1.000E-01 0.500 F 0.235 -0.030 21.9 R 0.70 0.57 o 691 0.34 Yes Yes
2001CC32 O C 2020-01-26.28482 1.000E-05 11:02:58.530 1.500E-01 0.500 F 0.149 -0.369 +13° 51' 07.50" 1.000E-01 0.500 F 0.268 -0.274 19.6 V 0.70 0.76 o 691 0.92 Yes Yes
2020BH O C K 2020-01-26.29356 1.000E-05 11:04:08.640 1.500E-01 0.500 F 0.182 0.887 +14° 40' 44.60" 1.000E-01 0.500 F 0.235 0.265 21.8 R 0.70 0.47 o 691 1.86 Yes Yes
2001CC32 O C 2020-01-26.30376 1.000E-05 11:02:55.290 1.500E-01 0.500 F 0.149 0.365 +13° 49' 52.70" 1.000E-01 0.500 F 0.268 -0.430 19.1 V 0.70 0.26 o 691 1.14 Yes Yes
2020BH O C K 2020-01-26.31543 1.000E-05 11:04:11.790 1.500E-01 0.500 F 0.182 -0.912 +14° 40' 04.20" 1.000E-01 0.500 F 0.235 -0.248 21.5 R 0.70 0.17 o 691 1.90 Yes Yes
2001CC32 O C 2020-01-26.32272 1.000E-05 11:02:51.930 1.500E-01 0.500 F 0.149 -0.358 +13° 48' 38.10" 1.000E-01 0.500 F 0.268 -0.189 19.1 V 0.70 0.26 o 691 0.82 Yes Yes
2020AU O C K 2020-01-26.42928 1.000E-05 09:17:13.530 1.500E-01 0.500 F 0.070 0.185 -08° 07' 05.30" 1.000E-01 0.500 F 0.105 0.343 21.8 R 0.70 0.07 o 691 0.82 Yes Yes
2020AU O C K 2020-01-26.44252 1.000E-05 09:17:13.570 1.500E-01 0.500 F 0.070 0.146 -08° 06' 56.50" 1.000E-01 0.500 F 0.105 -0.095 21.8 R 0.70 0.07 o 691 0.36 Yes Yes
2020AU O C K 2020-01-26.45576 1.000E-05 09:17:13.640 1.500E-01 0.500 F 0.070 0.244 -08° 06' 46.90" 1.000E-01 0.500 F 0.105 0.189 21.6 R 0.70 -0.13 o 691 0.65 Yes Yes
2019YF4 O C K 2020-01-26.50076 1.000E-05 12:52:02.990 1.500E-01 0.500 F 0.351 -0.407 -11° 26' 35.10" 1.000E-01 0.500 F 0.067 -0.026 21.4 R 0.70 0.16 o 691 0.83 Yes Yes
2019YF4 O C K 2020-01-26.51323 1.000E-05 12:52:04.730 1.500E-01 0.500 F 0.351 0.315 -11° 26' 44.90" 1.000E-01 0.500 F 0.067 0.620 21.6 R 0.70 0.36 o 691 1.41 Yes Yes
2019YF4 O C K 2020-01-26.52571 1.000E-05 12:52:06.390 1.500E-01 0.500 F 0.351 -0.267 -11° 26' 54.60" 1.000E-01 0.500 F 0.067 1.021 o 691 2.14 Yes No
2019YE4 O C H 2020-01-26.53888 1.000E-05 11:18:59.390 1.500E-01 0.500 F 0.245 -0.251 +20° 11' 53.50" 1.000E-01 0.500 F 0.264 0.159 19.8 R 0.70 0.15 o 691 0.60 Yes Yes
2019YE4 O C H 2020-01-26.54406 1.000E-05 11:19:01.340 1.500E-01 0.500 F 0.245 -0.095 +20° 11' 58.30" 1.000E-01 0.500 F 0.264 0.392 20.0 R 0.70 0.35 o 691 0.81 Yes Yes
2019YE4 O C H 2020-01-26.54536 1.000E-05 11:19:01.810 1.500E-01 0.500 F 0.245 -0.334 +20° 11' 59.50" 1.000E-01 0.500 F 0.264 0.448 19.6 R 0.70 -0.05 o 691 1.13 Yes Yes
2017BP31 O C H 2020-01-26.54862 1.000E-05 09:33:10.400 1.500E-01 0.500 F 0.240 -0.334 +18° 36' 17.80" 1.000E-01 0.500 F 0.362 -0.220 20.4 R 0.70 0.11 o 691 0.80 Yes Yes
2017BP31 O C H 2020-01-26.55035 1.000E-05 09:33:10.240 1.500E-01 0.500 F 0.240 -0.287 +18° 36' 19.10" 1.000E-01 0.500 F 0.362 0.011 21.0 R 0.70 0.71 o 691 0.58 Yes Yes
2017BP31 O C H 2020-01-26.55209 1.000E-05 09:33:10.100 1.500E-01 0.500 F 0.240 0.058 +18° 36' 19.90" 1.000E-01 0.500 F 0.362 -0.265 20.3 R 0.70 0.01 o 691 0.54 Yes Yes
2020BD8 O C K 2020-01-27.09782 1.000E-05 03:04:45.170 1.500E-01 0.500 F -0.155 -0.262 +28° 45' 25.00" 1.000E-01 0.500 F 0.223 0.131 21.8 R 0.70 0.41 o 691 0.61 Yes Yes
2020BD8 O C K 2020-01-27.10761 1.000E-05 03:04:49.030 1.500E-01 0.500 F -0.155 0.223 +28° 45' 32.20" 1.000E-01 0.500 F 0.223 -0.188 22.2 R 0.70 0.81 o 691 0.60 Yes Yes
2020BD8 O C K 2020-01-27.11738 1.000E-05 03:04:52.860 1.500E-01 0.500 F -0.155 0.425 +28° 45' 40.00" 1.000E-01 0.500 F 0.223 0.143 21.1 R 0.70 -0.29 o 691 0.93 Yes Yes
2020BC8 O C K 2020-01-27.12759 1.000E-05 03:44:09.090 1.500E-01 0.500 F -0.017 0.061 +29° 43' 35.70" 1.000E-01 0.500 F 0.180 -0.118 21.4 R 0.70 0.50 o 691 0.27 Yes Yes
2020BC8 O C K 2020-01-27.13162 1.000E-05 03:44:08.510 1.500E-01 0.500 F -0.017 -0.303 +29° 43' 31.70" 1.000E-01 0.500 F 0.180 0.222 21.0 R 0.70 0.10 o 691 0.75 Yes Yes
2020BC8 O C K 2020-01-27.13564 1.000E-05 03:44:07.980 1.500E-01 0.500 F -0.017 -0.034 +29° 43' 27.10" 1.000E-01 0.500 F 0.180 -0.045 21.4 R 0.70 0.50 o 691 0.11 Yes Yes
2020BY1 O C K 2020-01-27.14533 1.000E-05 07:59:24.230 1.500E-01 0.500 F -0.119 0.192 +13° 18' 25.50" 1.000E-01 0.500 F 0.213 -0.282 22.1 R 0.70 0.30 o 691 0.69 Yes Yes
2020BY1 O C K 2020-01-27.15864 1.000E-05 07:59:25.730 1.500E-01 0.500 F -0.119 -0.063 +13° 18' 14.30" 1.000E-01 0.500 F 0.213 0.399 21.6 R 0.70 -0.21 o 691 0.81 Yes Yes
2020BY1 O C K 2020-01-27.17195 1.000E-05 07:59:27.180 1.500E-01 0.500 F -0.119 -0.602 +13° 18' 01.70" 1.000E-01 0.500 F 0.213 -0.274 21.9 R 0.70 0.09 o 691 1.33 Yes Yes
2020BW5 O C K 2020-01-27.19417 1.000E-05 09:02:39.100 1.500E-01 0.500 F -0.023 -0.470 +12° 59' 27.70" 1.000E-01 0.500 F 0.239 0.039 20.4 R 0.70 -0.67 o 691 0.95 Yes Yes
2020BW5 O C K 2020-01-27.19848 1.000E-05 09:02:39.570 1.500E-01 0.500 F -0.023 -0.223 +12° 59' 19.70" 1.000E-01 0.500 F 0.239 0.076 21.4 R 0.70 0.33 o 691 0.47 Yes Yes
2020BR2 O C K 2020-01-27.22411 1.000E-05 09:30:34.060 1.500E-01 0.500 F 0.080 0.102 +13° 12' 33.50" 1.000E-01 0.500 F 0.251 0.024 21.8 R 0.70 0.57 o 691 0.21 Yes Yes
2020BR2 O C K 2020-01-27.23857 1.000E-05 09:30:31.020 1.500E-01 0.500 F 0.080 -0.422 +13° 13' 40.60" 1.000E-01 0.500 F 0.251 0.244 21.6 R 0.70 0.37 o 691 1.00 Yes Yes
2020BH O C K 2020-01-27.28116 1.000E-05 11:07:50.770 1.500E-01 0.500 F 0.178 -0.212 +14° 07' 47.00" 1.000E-01 0.500 F 0.212 -0.461 22.5 R 0.70 1.01 o 691 1.02 Yes Yes
2020BH O C K 2020-01-27.30740 1.000E-05 11:07:53.880 1.500E-01 0.500 F 0.178 -1.590 +14° 07' 06.40" 1.000E-01 0.500 F 0.212 -0.593 22.3 R 0.70 0.81 o 691 3.38 No Yes
2012TO139 O C K 2020-01-28.09349 1.000E-05 02:19:54.870 1.500E-01 0.500 F -0.309 0.718 -05° 54' 20.00" 1.000E-01 0.500 F 0.086 0.458 20.8 R 0.70 1.42 o 691 1.81 Yes Yes
2012TO139 O C K 2020-01-28.09661 1.000E-05 02:19:52.470 1.500E-01 0.500 F -0.309 -0.291 -05° 54' 26.00" 1.000E-01 0.500 F 0.086 -0.071 20.1 R 0.70 0.72 o 691 0.64 Yes Yes
2012TO139 O C K 2020-01-28.09974 1.000E-05 02:19:50.160 1.500E-01 0.500 F -0.309 0.149 -05° 54' 31.10" 1.000E-01 0.500 F 0.086 0.315 20.2 R 0.70 0.82 o 691 0.72 Yes Yes
2012DK31 O C K 2020-01-28.10510 1.000E-05 03:33:22.600 1.500E-01 0.500 F -0.196 0.108 -22° 51' 15.70" 1.000E-01 0.500 F 0.115 -0.096 21.8 R 0.70 0.97 o 691 0.31 Yes Yes
2012DK31 O C K 2020-01-28.11638 1.000E-05 03:33:24.740 1.500E-01 0.500 F -0.196 -2.607 -22° 50' 02.20" 1.000E-01 0.500 F 0.115 1.046 o 691 5.34 No No
2012DK31 O C K 2020-01-28.12767 1.000E-05 03:33:27.280 1.500E-01 0.500 F -0.196 0.191 -22° 48' 50.20" 1.000E-01 0.500 F 0.115 0.594 21.3 R 0.70 0.47 o 691 1.30 Yes Yes
2020BC8 O C K 2020-01-28.14617 1.000E-05 03:41:57.690 1.500E-01 0.500 F 0.028 -0.106 +29° 25' 19.50" 1.000E-01 0.500 F 0.187 0.138 20.8 R 0.70 -0.11 o 691 0.35 Yes Yes
2019OA5 O C K 2020-01-28.15149 1.000E-05 02:55:02.800 1.500E-01 0.500 F -0.307 0.268 +04° 44' 30.00" 1.000E-01 0.500 F 0.189 -0.328 20.8 R 0.70 -0.07 o 691 0.85 Yes Yes
2020BC8 O C K 2020-01-28.16298 1.000E-05 03:41:55.480 1.500E-01 0.500 F 0.028 0.075 +29° 25' 00.90" 1.000E-01 0.500 F 0.187 -0.158 21.3 R 0.70 0.39 o 691 0.35 Yes Yes
2019OA5 O C K 2020-01-28.16824 1.000E-05 02:55:06.390 1.500E-01 0.500 F -0.307 0.704 +04° 44' 22.50" 1.000E-01 0.500 F 0.189 -1.096 21.1 R 0.70 0.23 o 691 2.62 Yes Yes
2019OA5 O C K 2020-01-28.18493 1.000E-05 02:55:09.880 1.500E-01 0.500 F -0.307 -0.199 +04° 44' 16.60" 1.000E-01 0.500 F 0.189 -0.287 21.3 R 0.70 0.43 o 691 0.70 Yes Yes
2000CH59 O C H 2020-01-28.19196 1.000E-05 05:03:15.690 1.500E-01 0.500 F -0.065 0.023 +07° 26' 34.30" 1.000E-01 0.500 F 0.129 0.108 18.4 R 0.70 0.01 o 691 0.22 Yes Yes
2019WR6 O C K 2020-01-28.19383 1.000E-05 05:57:01.110 1.500E-01 0.500 F -0.086 -0.332 -13° 17' 57.10" 1.000E-01 0.500 F -0.045 0.380 21.0 R 0.70 -0.24 o 691 1.03 Yes Yes
2000CH59 O C H 2020-01-28.20910 1.000E-05 05:03:16.170 1.500E-01 0.500 F -0.065 -0.155 +07° 27' 01.10" 1.000E-01 0.500 F 0.129 -0.080 18.3 R 0.70 -0.09 o 691 0.35 Yes Yes
2019WR6 O C K 2020-01-28.21097 1.000E-05 05:57:00.830 1.500E-01 0.500 F -0.086 0.061 -13° 18' 33.10" 1.000E-01 0.500 F -0.045 0.400 21.1 R 0.70 -0.14 o 691 0.85 Yes Yes
2000CH59 O C H 2020-01-28.22621 1.000E-05 05:03:16.680 1.500E-01 0.500 F -0.065 0.024 +07° 27' 28.40" 1.000E-01 0.500 F 0.129 0.346 18.5 R 0.70 0.11 o 691 0.70 Yes Yes
2019WR6 O C K 2020-01-28.22810 1.000E-05 05:57:00.520 1.500E-01 0.500 F -0.086 -0.012 -13° 19' 09.10" 1.000E-01 0.500 F -0.045 0.315 o 691 0.66 Yes No
2020BO3 O C K 2020-01-28.24380 1.000E-05 04:41:18.330 1.500E-01 0.500 F -0.217 -0.150 -01° 16' 30.80" 1.000E-01 0.500 F 0.104 0.034 21.1 R 0.70 -0.27 o 691 0.31 Yes Yes
2019YC4 O C K 2020-01-28.25644 1.000E-05 06:20:09.000 1.500E-01 0.500 F 0.030 -0.091 +16° 25' 49.70" 1.000E-01 0.500 F 0.160 -0.304 o 691 0.88 Yes No
2020BO3 O C K 2020-01-28.26431 1.000E-05 04:41:23.090 1.500E-01 0.500 F -0.217 0.130 -01° 17' 07.00" 1.000E-01 0.500 F 0.104 -0.040 21.8 R 0.70 0.43 o 691 0.27 Yes Yes
2019YC4 O C K 2020-01-28.27692 1.000E-05 06:20:09.120 1.500E-01 0.500 F -0.072 0.059 +16° 27' 08.20" 1.000E-01 0.500 F 0.192 0.280 o 691 0.80 Yes No
2020BO3 O C K 2020-01-28.28477 1.000E-05 04:41:27.830 1.500E-01 0.500 F -0.217 -0.178 -01° 17' 43.60" 1.000E-01 0.500 F 0.104 -0.640 o 691 1.34 Yes No
2019VN6 O C K 2020-01-28.32117 1.000E-05 07:59:33.250 1.500E-01 0.500 F 0.029 0.000 +15° 29' 26.20" 1.000E-01 0.500 F 0.184 0.057 o 691 0.12 Yes No
2019YR6 O C K 2020-01-28.33097 1.000E-05 07:59:23.290 1.500E-01 0.500 F -0.040 -0.201 -01° 24' 02.50" 1.000E-01 0.500 F 0.009 0.563 o 691 1.24 Yes No
2019VN6 O C K 2020-01-28.33834 1.000E-05 07:59:31.850 1.500E-01 0.500 F 0.029 0.162 +15° 29' 35.30" 1.000E-01 0.500 F 0.184 -0.096 o 691 0.38 Yes No
2019YR6 O C K 2020-01-28.34801 1.000E-05 07:59:19.470 1.500E-01 0.500 F -0.040 -0.173 -01° 24' 13.00" 1.000E-01 0.500 F 0.009 -0.598 o 691 1.30 Yes No
2019VN6 O C K 2020-01-28.35541 1.000E-05 07:59:30.440 1.500E-01 0.500 F 0.029 0.040 +15° 29' 44.60" 1.000E-01 0.500 F 0.184 0.020 21.4 R 0.70 0.36 o 691 0.09 Yes Yes
2020BZ12 O C K 2020-01-28.50914 1.000E-05 11:58:49.590 1.500E-01 0.500 F 0.377 0.178 -21° 16' 04.90" 1.000E-01 0.500 F 0.077 0.070 20.4 R 0.70 0.11 o 691 0.38 Yes Yes
2020BZ12 O C K 2020-01-28.52420 1.000E-05 11:58:46.750 1.500E-01 0.500 F 0.377 -0.283 -21° 16' 09.20" 1.000E-01 0.500 F 0.077 0.023 20.5 R 0.70 0.21 o 691 0.57 Yes Yes
2020BZ12 O C K 2020-01-28.53924 1.000E-05 11:58:43.960 1.500E-01 0.500 F 0.377 -0.079 -21° 16' 12.40" 1.000E-01 0.500 F 0.077 1.045 20.1 R 0.70 -0.19 o 691 2.10 Yes Yes
2011YB40 O C K 2020-01-29.08639 1.000E-05 01:33:50.590 1.500E-01 0.500 F -0.415 0.027 -00° 51' 42.40" 1.000E-01 0.500 F 0.209 0.355 20.6 R 0.70 -0.15 o 691 0.75 Yes Yes
2011YB40 O C K 2020-01-29.09489 1.000E-05 01:33:52.360 1.500E-01 0.500 F -0.415 0.049 -00° 51' 08.00" 1.000E-01 0.500 F 0.209 0.159 20.9 R 0.70 0.15 o 691 0.35 Yes Yes
2011YB40 O C K 2020-01-29.10339 1.000E-05 01:33:54.140 1.500E-01 0.500 F -0.415 0.210 -00° 50' 33.30" 1.000E-01 0.500 F 0.209 0.263 21.0 R 0.70 0.25 o 691 0.72 Yes Yes
2020BT2 O C K 2020-01-29.11335 1.000E-05 03:43:28.210 1.500E-01 0.500 F -0.275 0.166 -02° 55' 34.90" 1.000E-01 0.500 F 0.271 -0.042 21.5 R 0.70 -0.05 o 691 0.36 Yes Yes
2019WP3 O C K 2020-01-29.12443 1.000E-05 02:55:34.720 1.500E-01 0.500 F -0.414 0.026 -00° 43' 13.10" 1.000E-01 0.500 F 0.163 0.339 22.1 R 0.70 0.35 o 691 0.70 Yes Yes
2020BT2 O C K 2020-01-29.13210 1.000E-05 03:43:27.480 1.500E-01 0.500 F -0.275 0.122 -02° 54' 28.90" 1.000E-01 0.500 F 0.271 -0.256 21.7 R 0.70 0.14 o 691 0.60 Yes Yes
2019WP3 O C K 2020-01-29.14313 1.000E-05 02:55:36.520 1.500E-01 0.500 F -0.414 0.345 -00° 42' 59.90" 1.000E-01 0.500 F 0.163 -0.405 21.9 R 0.70 0.15 o 691 1.09 Yes Yes
2020BT2 O C K 2020-01-29.15080 1.000E-05 03:43:26.750 1.500E-01 0.500 F -0.275 -0.077 -02° 53' 22.70" 1.000E-01 0.500 F 0.271 -0.060 22.1 R 0.70 0.54 o 691 0.20 Yes Yes
2019WP3 O C K 2020-01-29.16184 1.000E-05 02:55:38.310 1.500E-01 0.500 F -0.414 0.441 -00° 42' 45.10" 1.000E-01 0.500 F 0.163 0.439 21.8 R 0.70 0.05 o 691 1.29 Yes Yes
2000CH59 O C H 2020-01-29.17873 1.000E-05 05:03:57.710 1.500E-01 0.500 F -0.065 -0.123 +07° 51' 58.10" 1.000E-01 0.500 F 0.129 0.152 18.4 R 0.70 -0.07 o 691 0.39 Yes Yes
2020BO3 O C K 2020-01-29.19345 1.000E-05 04:45:12.870 1.500E-01 0.500 F -0.179 -0.229 -01° 44' 01.50" 1.000E-01 0.500 F 0.141 0.083 21.8 R 0.70 0.41 o 691 0.49 Yes Yes
2000CH59 O C H 2020-01-29.20177 1.000E-05 05:03:58.440 1.500E-01 0.500 F -0.065 -0.011 +07° 52' 32.60" 1.000E-01 0.500 F 0.129 0.003 18.5 R 0.70 0.03 o 691 0.02 Yes Yes
2020BO3 O C K 2020-01-29.21648 1.000E-05 04:45:18.110 1.500E-01 0.500 F -0.179 -1.026 -01° 44' 40.60" 1.000E-01 0.500 F 0.141 0.331 21.6 R 0.70 0.21 o 691 2.17 Yes Yes
2000CH59 O C H 2020-01-29.22481 1.000E-05 05:03:59.170 1.500E-01 0.500 F -0.065 -0.060 +07° 53' 07.20" 1.000E-01 0.500 F 0.129 0.073 18.7 R 0.70 0.22 o 691 0.19 Yes Yes
2019XF1 O C K 2020-01-29.24076 1.000E-05 06:26:54.760 1.500E-01 0.500 F -0.125 -0.367 -04° 22' 11.00" 1.000E-01 0.500 F 0.064 -0.121 22.8 R 0.70 1.17 o 691 0.91 Yes Yes
2019MS3 O C K 2020-01-29.26402 1.000E-05 07:01:26.660 1.500E-01 0.500 F -0.071 -0.325 +15° 32' 18.90" 1.000E-01 0.500 F 0.253 0.269 21.4 R 0.70 0.29 o 691 0.85 Yes Yes
2019XF1 O C K 2020-01-29.26911 1.000E-05 06:26:53.060 1.500E-01 0.500 F -0.125 -0.008 -04° 22' 28.50" 1.000E-01 0.500 F 0.064 0.296 o 691 0.71 Yes No
2019MS3 O C K 2020-01-29.29232 1.000E-05 07:01:25.480 1.500E-01 0.500 F -0.071 -0.096 +15° 32' 44.90" 1.000E-01 0.500 F 0.253 0.210 22.1 R 0.70 0.99 o 691 0.47 Yes Yes
2019XF1 O C K 2020-01-29.29741 1.000E-05 06:26:51.370 1.500E-01 0.500 F -0.125 0.214 -04° 22' 46.60" 1.000E-01 0.500 F 0.064 -0.010 o 691 0.50 Yes No
2019MS3 O C K 2020-01-29.32060 1.000E-05 07:01:24.280 1.500E-01 0.500 F -0.071 -0.306 +15° 33' 10.70" 1.000E-01 0.500 F 0.253 0.083 22.4 R 0.70 1.29 o 691 0.64 Yes Yes
2015BK509 O C 2020-01-29.40628 1.000E-05 10:25:11.050 1.500E-01 0.500 F 0.058 -0.221 +21° 15' 41.00" 1.000E-01 0.500 F 0.208 -0.126 20.7 V 0.70 -0.02 o 691 0.51 Yes Yes
2015BK509 O C 2020-01-29.42289 1.000E-05 10:25:09.770 1.500E-01 0.500 F 0.058 0.535 +21° 15' 48.40" 1.000E-01 0.500 F 0.208 1.560 20.2 V 0.70 -0.52 o 691 3.28 No Yes
2020BS O C K 2020-01-29.42745 1.000E-05 10:02:54.860 1.500E-01 0.500 F 0.097 -0.186 +08° 18' 51.20" 1.000E-01 0.500 F 0.053 0.161 21.4 R 0.70 -0.01 o 691 0.52 Yes Yes
2015BK509 O C 2020-01-29.43943 1.000E-05 10:25:08.380 1.500E-01 0.500 F 0.058 -0.361 +21° 15' 52.50" 1.000E-01 0.500 F 0.208 0.081 20.7 V 0.70 -0.02 o 691 0.75 Yes Yes
2020BS O C K 2020-01-29.44399 1.000E-05 10:02:55.180 1.500E-01 0.500 F 0.097 0.778 +08° 18' 12.80" 1.000E-01 0.500 F 0.053 -0.383 21.8 R 0.70 0.39 o 691 1.83 Yes Yes
2020BC8 O C K 2020-01-30.12372 1.000E-05 03:37:55.890 1.500E-01 0.500 F -0.055 -0.464 +28° 49' 39.60" 1.000E-01 0.500 F 0.231 0.384 21.9 R 0.70 0.99 o 691 1.21 Yes Yes
2019WP3 O C K 2020-01-30.13110 1.000E-05 02:57:14.990 1.500E-01 0.500 F -0.363 -0.208 -00° 30' 36.50" 1.000E-01 0.500 F 0.185 0.438 22.4 R 0.70 0.65 o 691 1.00 Yes Yes
2020BC8 O C K 2020-01-30.14097 1.000E-05 03:37:53.790 1.500E-01 0.500 F -0.055 0.000 +28° 49' 20.50" 1.000E-01 0.500 F 0.231 0.118 21.5 R 0.70 0.59 o 691 0.24 Yes Yes
2019WP3 O C K 2020-01-30.14838 1.000E-05 02:57:16.630 1.500E-01 0.500 F -0.363 -0.944 -00° 30' 24.20" 1.000E-01 0.500 F 0.185 -0.355 22.0 R 0.70 0.25 o 691 2.09 Yes Yes
2020BC8 O C K 2020-01-30.15986 1.000E-05 03:37:51.450 1.500E-01 0.500 F -0.055 -0.080 +28° 48' 59.80" 1.000E-01 0.500 F 0.231 0.122 21.3 R 0.70 0.39 o 691 0.29 Yes Yes
2019WP3 O C K 2020-01-30.16545 1.000E-05 02:57:18.360 1.500E-01 0.500 F -0.363 -0.076 -00° 30' 11.00" 1.000E-01 0.500 F 0.185 -0.092 o 691 0.25 Yes No
2019YM6 O C K 2020-01-30.17440 1.000E-05 03:46:02.110 1.500E-01 0.500 F -0.362 -0.063 +12° 53' 46.90" 1.000E-01 0.500 F 0.301 0.059 20.3 R 0.70 0.09 o 691 0.18 Yes Yes
2019OA5 O C K 2020-01-30.18165 1.000E-05 03:02:13.610 1.500E-01 0.500 F -0.292 0.186 +04° 31' 41.40" 1.000E-01 0.500 F 0.168 -0.359 21.6 R 0.70 0.66 o 691 0.81 Yes Yes
2019YM6 O C K 2020-01-30.19120 1.000E-05 03:45:57.260 1.500E-01 0.500 F -0.362 -0.371 +12° 55' 36.10" 1.000E-01 0.500 F 0.301 0.065 20.0 R 0.70 -0.21 o 691 0.79 Yes Yes
2019OA5 O C K 2020-01-30.19845 1.000E-05 03:02:17.050 1.500E-01 0.500 F -0.292 -0.187 +04° 31' 35.80" 1.000E-01 0.500 F 0.168 0.091 21.3 R 0.70 0.36 o 691 0.42 Yes Yes
2019YM6 O C K 2020-01-30.20800 1.000E-05 03:45:52.510 1.500E-01 0.500 F -0.362 0.536 +12° 57' 24.80" 1.000E-01 0.500 F 0.301 -0.320 20.1 R 0.70 -0.11 o 691 1.32 Yes Yes
2019OA5 O C K 2020-01-30.21524 1.000E-05 03:02:20.530 1.500E-01 0.500 F -0.292 0.020 +04° 31' 29.50" 1.000E-01 0.500 F 0.168 -0.162 21.9 R 0.70 0.96 o 691 0.33 Yes Yes
2020BJ3 O C K 2020-01-30.39255 1.000E-05 08:41:11.870 1.500E-01 0.500 F 0.046 0.279 +18° 26' 28.20" 1.000E-01 0.500 F 0.138 -0.102 20.5 R 0.70 0.01 o 691 0.62 Yes Yes
2011CT4 O C 2020-01-30.39653 1.000E-05 08:41:56.730 1.500E-01 0.500 F -0.059 -0.321 +17° 01' 23.90" 1.000E-01 0.500 F 0.167 -0.055 18.2 V 0.70 0.36 o 691 0.65 Yes Yes
2020BF5 O C K 2020-01-30.39653 1.000E-05 08:40:03.960 1.500E-01 0.500 F -0.059 -0.535 +17° 10' 55.50" 1.000E-01 0.500 F 0.167 -0.146 20.7 R 0.70 0.18 o 691 1.12 Yes Yes
2020BK10 O C K 2020-01-30.40386 1.000E-05 07:42:01.820 1.500E-01 0.500 F -0.007 0.210 +11° 02' 47.80" 1.000E-01 0.500 F 0.185 0.193 21.4 R 0.70 0.42 o 691 0.59 Yes Yes
2020BJ3 O C K 2020-01-30.41114 1.000E-05 08:41:14.950 1.500E-01 0.500 F 0.046 -0.245 +18° 27' 06.80" 1.000E-01 0.500 F 0.138 -0.398 20.6 R 0.70 0.11 o 691 0.96 Yes Yes
2020BF5 O C K 2020-01-30.41512 1.000E-05 08:39:58.550 1.500E-01 0.500 F -0.059 -0.134 +17° 12' 13.90" 1.000E-01 0.500 F 0.167 -0.213 20.4 R 0.70 -0.12 o 691 0.51 Yes Yes
2011CT4 O C 2020-01-30.41851 1.000E-05 08:41:50.410 1.500E-01 0.500 F -0.059 -0.341 +17° 01' 37.70" 1.000E-01 0.500 F 0.167 -0.019 18.0 V 0.70 0.15 o 691 0.69 Yes Yes
2020BK10 O C K 2020-01-30.42246 1.000E-05 07:42:01.170 1.500E-01 0.500 F -0.007 0.566 +11° 02' 19.50" 1.000E-01 0.500 F 0.185 0.053 o 691 1.20 Yes No
2020BJ3 O C K 2020-01-30.42974 1.000E-05 08:41:18.130 1.500E-01 0.500 F 0.046 0.216 +18° 27' 46.00" 1.000E-01 0.500 F 0.138 0.115 21.0 R 0.70 0.51 o 691 0.51 Yes Yes
2020BF5 O C K 2020-01-30.43372 1.000E-05 08:39:53.170 1.500E-01 0.500 F -0.059 0.323 +17° 13' 32.20" 1.000E-01 0.500 F 0.167 -0.293 20.9 R 0.70 0.38 o 691 0.88 Yes Yes
2011CT4 O C 2020-01-30.43939 1.000E-05 08:41:44.430 1.500E-01 0.500 F -0.059 -0.604 +17° 01' 50.60" 1.000E-01 0.500 F 0.167 -0.009 18.1 V 0.70 0.25 o 691 1.21 Yes Yes
2020BS O C K 2020-01-30.44310 1.000E-05 10:04:23.880 1.500E-01 0.500 F 0.023 0.151 +07° 43' 54.50" 1.000E-01 0.500 F 0.148 -0.039 22.0 R 0.70 0.46 o 691 0.33 Yes Yes
2003DP13 O C 2020-01-30.45295 1.000E-05 10:09:31.740 1.500E-01 0.500 F 0.074 -0.148 +13° 08' 21.60" 1.000E-01 0.500 F 0.212 -0.391 20.6 V 0.70 0.34 o 691 0.84 Yes Yes
2020BX2 O C K 2020-01-30.45295 1.000E-05 10:08:10.240 1.500E-01 0.500 F 0.129 -0.365 +12° 26' 11.50" 1.000E-01 0.500 F 0.277 -0.204 22.0 R 0.70 0.36 o 691 0.99 Yes Yes
2020BS O C K 2020-01-30.46548 1.000E-05 10:04:24.130 1.500E-01 0.500 F 0.042 0.476 +07° 43' 09.50" 1.000E-01 0.500 F 0.197 -0.454 21.8 R 0.70 0.25 o 691 1.40 Yes Yes
2020BX2 O C K 2020-01-30.47534 1.000E-05 10:08:15.020 1.500E-01 0.500 F 0.129 0.137 +12° 26' 22.60" 1.000E-01 0.500 F 0.277 -0.595 22.1 R 0.70 0.46 o 691 1.42 Yes Yes
2003DP13 O C 2020-01-30.48084 1.000E-05 10:09:29.980 1.500E-01 0.500 F 0.074 -0.833 +13° 08' 24.50" 1.000E-01 0.500 F 0.212 0.840 19.8 V 0.70 -0.46 o 691 2.37 Yes Yes
2020BS O C K 2020-01-30.48787 1.000E-05 10:04:24.520 1.500E-01 0.500 F 0.042 0.792 +07° 42' 24.90" 1.000E-01 0.500 F 0.197 -0.127 o 691 1.69 Yes No
2020BX2 O C K 2020-01-30.49772 1.000E-05 10:08:19.810 1.500E-01 0.500 F 0.129 0.216 +12° 26' 34.90" 1.000E-01 0.500 F 0.277 0.431 21.2 R 0.70 -0.44 o 691 1.12 Yes Yes
2003DP13 O C 2020-01-30.50874 1.000E-05 10:09:28.300 1.500E-01 0.500 F 0.074 -0.426 +13° 08' 25.90" 1.000E-01 0.500 F 0.212 0.598 20.7 V 0.70 0.44 o 691 1.47 Yes Yes
2020BK7 O C K 2020-01-30.51142 1.000E-05 12:20:14.650 1.500E-01 0.500 F 0.264 -0.088 -07° 29' 10.30" 1.000E-01 0.500 F -0.043 -0.332 21.2 R 0.70 0.04 o 691 0.71 Yes Yes
2018PA20 O C K 2020-01-30.51664 1.000E-05 13:07:16.070 1.500E-01 0.500 F 0.044 -0.330 -13° 18' 38.10" 1.000E-01 0.500 F 0.056 -0.644 21.9 R 0.70 0.61 o 691 1.46 Yes Yes
2020BK7 O C K 2020-01-30.52605 1.000E-05 12:20:16.430 1.500E-01 0.500 F 0.264 0.265 -07° 29' 57.10" 1.000E-01 0.500 F -0.043 0.485 21.4 R 0.70 0.24 o 691 1.14 Yes Yes
2018PA20 O C K 2020-01-30.53126 1.000E-05 13:07:16.780 1.500E-01 0.500 F 0.044 0.435 -13° 19' 24.80" 1.000E-01 0.500 F 0.056 0.923 21.6 R 0.70 0.31 o 691 2.05 Yes Yes
2020BK7 O C K 2020-01-30.54067 1.000E-05 12:20:18.220 1.500E-01 0.500 F 0.264 0.360 -07° 30' 44.50" 1.000E-01 0.500 F -0.043 0.464 o 691 1.21 Yes No
2018PA20 O C K 2020-01-30.54587 1.000E-05 13:07:17.450 1.500E-01 0.500 F 0.044 0.609 -13° 20' 14.10" 1.000E-01 0.500 F 0.056 -0.148 21.4 R 0.70 0.11 o 691 1.26 Yes Yes
2019WF3 O C K 2020-01-31.08550 1.000E-05 02:32:46.390 1.500E-01 0.500 F -0.274 -0.171 +15° 49' 02.20" 1.000E-01 0.500 F 0.399 0.570 20.9 R 0.70 0.52 o 691 1.20 Yes Yes
2016XH1 O C K 2020-01-31.09087 1.000E-05 02:04:48.200 1.500E-01 0.500 F -0.238 0.017 +05° 42' 57.00" 1.000E-01 0.500 F 0.230 -0.023 22.7 R 0.70 1.41 o 691 0.06 Yes Yes
2019WF3 O C K 2020-01-31.10647 1.000E-05 02:32:49.930 1.500E-01 0.500 F -0.274 -0.031 +15° 47' 53.90" 1.000E-01 0.500 F 0.399 -0.421 21.4 R 0.70 1.02 o 691 0.85 Yes Yes
2016XH1 O C K 2020-01-31.11183 1.000E-05 02:04:50.490 1.500E-01 0.500 F -0.238 -0.400 +05° 41' 54.90" 1.000E-01 0.500 F 0.230 0.080 21.8 R 0.70 0.51 o 691 0.83 Yes Yes
2019WF3 O C K 2020-01-31.12744 1.000E-05 02:32:53.470 1.500E-01 0.500 F -0.274 -0.080 +15° 46' 46.90" 1.000E-01 0.500 F 0.399 0.058 21.4 R 0.70 1.02 o 691 0.20 Yes Yes
2016XH1 O C K 2020-01-31.13281 1.000E-05 02:04:53.030 1.500E-01 0.500 F -0.238 2.775 +05° 40' 49.60" 1.000E-01 0.500 F 0.230 -2.942 o 691 7.90 No No
2019WP3 O C K 2020-01-31.14882 1.000E-05 02:58:58.970 1.500E-01 0.500 F -0.380 0.004 -00° 17' 39.90" 1.000E-01 0.500 F 0.141 0.092 22.8 R 0.70 1.05 o 691 0.19 Yes Yes
2019WP3 O C K 2020-01-31.16402 1.000E-05 02:59:00.510 1.500E-01 0.500 F -0.380 0.190 -00° 17' 28.20" 1.000E-01 0.500 F 0.141 0.096 23.0 R 0.70 1.25 o 691 0.44 Yes Yes

[1-200] [201-400] [401-600] [601-800] [801-1000] [1001-1200] [1201-1400] [1401-1600] [1601-1800] [1801-2000] [2001-2200] [2201-2400] [2401-2600] [2601-2800] [2801-3000] [3001-3200] [3201-3400] [3401-3600] [3601-3800] [3801-4000] [4001-4200] [4201-4400] [4401-4600] [4601-4800] [4801-5000] [5001-5200] [5201-5400] [5401-5600] [5601-5800] [5801-6000] [6001-6200] [6201-6400] [6401-6600] [6601-6800] [6801-7000] [7001-7200] [7201-7400] [7401-7600] [7601-7800] [7801-8000] [8001-8200] [8201-8400] [8401-8600] [8601-8800] [8801-9000] [9001-9200] [9201-9400] [9401-9600] [9601-9800] [9801-10000] [10001-10200] [10201-10400] [10401-10600] [10601-10800] [10801-11000] [11001-11200] [11201-11400] [11401-11600] [11601-11800] [11801-12000] [12001-12200] [12201-12400] [12401-12600] [12601-12800] [12801-13000] [13001-13200] [13201-13400] [13401-13600] [13601-13800] [13801-14000] [14001-14200] [14201-14400] [14401-14600] [14601-14800] [14801-15000] [15001-15200] [15201-15400] [15401-15600] [15601-15800] [15801-16000] [16001-16200] [16201-16400] [16401-16600] [16601-16800] [16801-17000] [17001-17200] [17201-17400] [17401-17600] [17601-17800] [17801-18000] [18001-18200] [18201-18400] [18401-18600] [18601-18800] [18801-19000] [19001-19200] [19201-19400] [19401-19600] [19601-19800] [19801-20000] [20001-20200] [20201-20400] [20401-20600] [20601-20800] [20801-21000] [21001-21200] [21201-21400] [21401-21600] [21601-21800] [21801-22000] [22001-22200] [22201-22400] [22401-22600] [22601-22800] [22801-23000] [23001-23200] [23201-23400] [23401-23600] [23601-23800] [23801-24000] [24001-24200] [24201-24400] [24401-24600] [24601-24800] [24801-25000] [25001-25200] [25201-25400] [25401-25600] [25601-25800] [25801-26000] [26001-26200] [26201-26400] [26401-26600] [26601-26800] [26801-27000] [27001-27200] [27201-27400] [27401-27600] [27601-27800] [27801-28000] [28001-28200] [28201-28400] [28401-28600] [28601-28800] [28801-29000] [29001-29200] [29201-29400] [29401-29600] [29601-29800] [29801-30000] [30001-30200] [30201-30400] [30401-30600] [30601-30800] [30801-31000] [31001-31200] [31201-31400] [31401-31600] [31601-31800] [31801-32000] [32001-32200] [32201-32400] [32401-32600] [32601-32800] [32801-33000] [33001-33200] [33201-33400] [33401-33600] [33601-33800] [33801-34000] [34001-34200] [34201-34400] [34401-34600] [34601-34800] [34801-35000] [35001-35200] [35201-35400] [35401-35600] [35601-35800] [35801-36000] [36001-36200] [36201-36400] [36401-36600] [36601-36800] [36801-37000] [37001-37200] [37201-37400] [37401-37600] [37601-37800] [37801-38000] [38001-38200] [38201-38400] [38401-38600] [38601-38800] [38801-39000] [39001-39200] [39201-39400] [39401-39600] [39601-39800] [39801-40000] [40001-40200] [40201-40400] [40401-40600] [40601-40800] [40801-41000] [41001-41200] [41201-41400] [41401-41600] [41601-41800] [41801-42000] [42001-42200] [42201-42400] [42401-42600] [42601-42800] [42801-43000] [43001-43200] [43201-43400] [43401-43600] [43601-43800] [43801-44000] [44001-44200] [44201-44400] [44401-44600] [44601-44800] [44801-45000] [45001-45200] [45201-45400] [45401-45600] [45601-45800] [45801-46000] [46001-46200] [46201-46400] [46401-46600] [46601-46800] [46801-47000] [47001-47200] [47201-47400] [47401-47600] [47601-47800] [47801-48000] [48001-48200] [48201-48400] [48401-48600] [48601-48800] [48801-49000] [49001-49200] [49201-49400] [49401-49600] [49601-49800] [49801-50000] [50001-50200] [50201-50388]